sensor_id;sensor_type;location;lat;lon;timestamp;P1;durP1;ratioP1;P2;durP2;ratioP2
67146;SDS011;54061;52.036;5.558;2022-10-16T00:00:32;4.30;;;1.88;;
67146;SDS011;54061;52.036;5.558;2022-10-16T00:03:00;5.18;;;2.03;;
67146;SDS011;54061;52.036;5.558;2022-10-16T00:05:27;9.05;;;2.10;;
67146;SDS011;54061;52.036;5.558;2022-10-16T00:07:52;4.20;;;1.77;;
67146;SDS011;54061;52.036;5.558;2022-10-16T00:10:18;7.35;;;2.08;;
67146;SDS011;54061;52.036;5.558;2022-10-16T00:12:43;5.47;;;1.63;;
67146;SDS011;54061;52.036;5.558;2022-10-16T00:15:09;5.93;;;1.85;;
67146;SDS011;54061;52.036;5.558;2022-10-16T00:17:35;11.13;;;1.92;;
67146;SDS011;54061;52.036;5.558;2022-10-16T00:20:00;10.65;;;2.15;;
67146;SDS011;54061;52.036;5.558;2022-10-16T00:22:26;9.52;;;1.98;;
67146;SDS011;54061;52.036;5.558;2022-10-16T00:24:52;5.90;;;1.95;;
67146;SDS011;54061;52.036;5.558;2022-10-16T00:27:18;10.38;;;2.30;;
67146;SDS011;54061;52.036;5.558;2022-10-16T00:29:43;3.65;;;1.60;;
67146;SDS011;54061;52.036;5.558;2022-10-16T00:32:08;8.45;;;1.58;;
67146;SDS011;54061;52.036;5.558;2022-10-16T00:34:34;2.28;;;1.50;;
67146;SDS011;54061;52.036;5.558;2022-10-16T00:37:00;5.45;;;1.65;;
67146;SDS011;54061;52.036;5.558;2022-10-16T00:39:25;3.13;;;1.20;;
67146;SDS011;54061;52.036;5.558;2022-10-16T00:41:51;3.95;;;1.67;;
67146;SDS011;54061;52.036;5.558;2022-10-16T00:47:29;6.07;;;1.70;;
67146;SDS011;54061;52.036;5.558;2022-10-16T00:50:00;2.65;;;1.58;;
67146;SDS011;54061;52.036;5.558;2022-10-16T00:52:32;3.38;;;1.33;;
67146;SDS011;54061;52.036;5.558;2022-10-16T00:54:59;5.20;;;1.70;;
67146;SDS011;54061;52.036;5.558;2022-10-16T00:57:26;6.20;;;2.30;;
67146;SDS011;54061;52.036;5.558;2022-10-16T00:59:52;5.35;;;2.00;;
67146;SDS011;54061;52.036;5.558;2022-10-16T01:02:21;4.00;;;1.50;;
67146;SDS011;54061;52.036;5.558;2022-10-16T01:04:48;5.72;;;2.28;;
67146;SDS011;54061;52.036;5.558;2022-10-16T01:07:27;4.70;;;1.17;;
67146;SDS011;54061;52.036;5.558;2022-10-16T01:12:56;7.15;;;1.83;;
67146;SDS011;54061;52.036;5.558;2022-10-16T01:15:30;3.65;;;1.50;;
67146;SDS011;54061;52.036;5.558;2022-10-16T01:18:11;4.13;;;1.77;;
67146;SDS011;54061;52.036;5.558;2022-10-16T01:20:54;5.18;;;1.90;;
67146;SDS011;54061;52.036;5.558;2022-10-16T01:29:00;7.63;;;1.70;;
67146;SDS011;54061;52.036;5.558;2022-10-16T01:31:53;5.47;;;1.60;;
67146;SDS011;54061;52.036;5.558;2022-10-16T01:34:25;4.57;;;1.60;;
67146;SDS011;54061;52.036;5.558;2022-10-16T01:37:01;5.63;;;1.52;;
67146;SDS011;54061;52.036;5.558;2022-10-16T01:39:35;6.20;;;1.60;;
67146;SDS011;54061;52.036;5.558;2022-10-16T01:42:16;2.70;;;1.50;;
67146;SDS011;54061;52.036;5.558;2022-10-16T01:44:46;8.75;;;2.25;;
67146;SDS011;54061;52.036;5.558;2022-10-16T01:47:13;10.65;;;1.70;;
67146;SDS011;54061;52.036;5.558;2022-10-16T01:49:40;5.90;;;2.00;;
67146;SDS011;54061;52.036;5.558;2022-10-16T01:52:09;4.25;;;1.65;;
67146;SDS011;54061;52.036;5.558;2022-10-16T01:54:42;7.70;;;1.90;;
67146;SDS011;54061;52.036;5.558;2022-10-16T01:57:11;8.85;;;2.10;;
67146;SDS011;54061;52.036;5.558;2022-10-16T01:59:45;4.60;;;1.75;;
67146;SDS011;54061;52.036;5.558;2022-10-16T02:02:14;3.30;;;2.03;;
67146;SDS011;54061;52.036;5.558;2022-10-16T02:04:46;2.67;;;1.70;;
67146;SDS011;54061;52.036;5.558;2022-10-16T02:07:14;4.30;;;1.95;;
67146;SDS011;54061;52.036;5.558;2022-10-16T02:09:41;8.75;;;2.22;;
67146;SDS011;54061;52.036;5.558;2022-10-16T02:12:21;4.55;;;1.77;;
67146;SDS011;54061;52.036;5.558;2022-10-16T02:14:53;6.43;;;1.90;;
67146;SDS011;54061;52.036;5.558;2022-10-16T02:17:19;3.08;;;1.77;;
67146;SDS011;54061;52.036;5.558;2022-10-16T02:19:46;6.50;;;1.67;;
67146;SDS011;54061;52.036;5.558;2022-10-16T02:22:22;9.35;;;1.90;;
67146;SDS011;54061;52.036;5.558;2022-10-16T02:24:56;3.13;;;1.65;;
67146;SDS011;54061;52.036;5.558;2022-10-16T02:27:27;2.95;;;1.63;;
67146;SDS011;54061;52.036;5.558;2022-10-16T02:30:20;4.03;;;1.95;;
67146;SDS011;54061;52.036;5.558;2022-10-16T02:32:53;2.97;;;1.85;;
67146;SDS011;54061;52.036;5.558;2022-10-16T02:35:20;6.35;;;2.38;;
67146;SDS011;54061;52.036;5.558;2022-10-16T02:37:47;3.00;;;1.80;;
67146;SDS011;54061;52.036;5.558;2022-10-16T02:40:15;3.15;;;1.83;;
67146;SDS011;54061;52.036;5.558;2022-10-16T02:42:41;2.38;;;1.73;;
67146;SDS011;54061;52.036;5.558;2022-10-16T02:45:07;4.18;;;1.90;;
67146;SDS011;54061;52.036;5.558;2022-10-16T02:47:34;1.95;;;1.63;;
67146;SDS011;54061;52.036;5.558;2022-10-16T02:50:00;4.00;;;1.77;;
67146;SDS011;54061;52.036;5.558;2022-10-16T02:52:25;2.28;;;1.73;;
67146;SDS011;54061;52.036;5.558;2022-10-16T02:54:51;3.88;;;1.92;;
67146;SDS011;54061;52.036;5.558;2022-10-16T02:57:18;3.00;;;1.58;;
67146;SDS011;54061;52.036;5.558;2022-10-16T02:59:44;1.65;;;1.50;;
67146;SDS011;54061;52.036;5.558;2022-10-16T03:02:10;4.57;;;1.90;;
67146;SDS011;54061;52.036;5.558;2022-10-16T03:04:36;5.30;;;1.88;;
67146;SDS011;54061;52.036;5.558;2022-10-16T03:07:02;5.10;;;2.13;;
67146;SDS011;54061;52.036;5.558;2022-10-16T03:09:28;4.57;;;1.90;;
67146;SDS011;54061;52.036;5.558;2022-10-16T03:11:54;7.05;;;1.90;;
67146;SDS011;54061;52.036;5.558;2022-10-16T03:14:19;3.78;;;1.73;;
67146;SDS011;54061;52.036;5.558;2022-10-16T03:16:45;5.97;;;2.08;;
67146;SDS011;54061;52.036;5.558;2022-10-16T03:19:10;6.93;;;1.88;;
67146;SDS011;54061;52.036;5.558;2022-10-16T03:21:36;2.58;;;1.55;;
67146;SDS011;54061;52.036;5.558;2022-10-16T03:24:01;5.82;;;2.30;;
67146;SDS011;54061;52.036;5.558;2022-10-16T03:26:27;3.75;;;1.88;;
67146;SDS011;54061;52.036;5.558;2022-10-16T03:28:52;1.85;;;1.52;;
67146;SDS011;54061;52.036;5.558;2022-10-16T03:31:18;5.40;;;1.50;;
67146;SDS011;54061;52.036;5.558;2022-10-16T03:33:43;3.83;;;1.65;;
67146;SDS011;54061;52.036;5.558;2022-10-16T03:36:09;3.30;;;1.70;;
67146;SDS011;54061;52.036;5.558;2022-10-16T03:38:34;4.60;;;1.77;;
67146;SDS011;54061;52.036;5.558;2022-10-16T03:41:00;7.53;;;1.92;;
67146;SDS011;54061;52.036;5.558;2022-10-16T03:43:25;7.47;;;1.75;;
67146;SDS011;54061;52.036;5.558;2022-10-16T03:45:51;2.47;;;1.75;;
67146;SDS011;54061;52.036;5.558;2022-10-16T03:48:18;5.03;;;1.80;;
67146;SDS011;54061;52.036;5.558;2022-10-16T03:50:44;1.48;;;1.27;;
67146;SDS011;54061;52.036;5.558;2022-10-16T03:53:11;8.38;;;1.40;;
67146;SDS011;54061;52.036;5.558;2022-10-16T03:55:36;2.30;;;1.55;;
67146;SDS011;54061;52.036;5.558;2022-10-16T03:58:02;6.05;;;1.77;;
67146;SDS011;54061;52.036;5.558;2022-10-16T04:00:27;4.38;;;1.80;;
67146;SDS011;54061;52.036;5.558;2022-10-16T04:02:53;2.80;;;1.67;;
67146;SDS011;54061;52.036;5.558;2022-10-16T04:05:18;3.83;;;1.40;;
67146;SDS011;54061;52.036;5.558;2022-10-16T04:07:44;2.97;;;1.52;;
67146;SDS011;54061;52.036;5.558;2022-10-16T04:10:10;3.28;;;1.40;;
67146;SDS011;54061;52.036;5.558;2022-10-16T04:12:35;2.95;;;1.70;;
67146;SDS011;54061;52.036;5.558;2022-10-16T04:15:01;3.10;;;1.75;;
67146;SDS011;54061;52.036;5.558;2022-10-16T04:17:27;5.68;;;1.48;;
67146;SDS011;54061;52.036;5.558;2022-10-16T04:19:52;2.45;;;1.80;;
67146;SDS011;54061;52.036;5.558;2022-10-16T04:22:18;7.38;;;1.42;;
67146;SDS011;54061;52.036;5.558;2022-10-16T04:24:44;4.97;;;1.48;;
67146;SDS011;54061;52.036;5.558;2022-10-16T04:27:09;5.03;;;1.52;;
67146;SDS011;54061;52.036;5.558;2022-10-16T04:29:35;13.88;;;1.83;;
67146;SDS011;54061;52.036;5.558;2022-10-16T04:32:00;3.47;;;1.40;;
67146;SDS011;54061;52.036;5.558;2022-10-16T04:34:26;4.57;;;1.33;;
67146;SDS011;54061;52.036;5.558;2022-10-16T04:36:51;3.28;;;1.60;;
67146;SDS011;54061;52.036;5.558;2022-10-16T04:39:17;2.72;;;1.50;;
67146;SDS011;54061;52.036;5.558;2022-10-16T04:41:43;4.35;;;1.30;;
67146;SDS011;54061;52.036;5.558;2022-10-16T04:44:08;3.22;;;1.50;;
67146;SDS011;54061;52.036;5.558;2022-10-16T04:46:34;5.55;;;1.58;;
67146;SDS011;54061;52.036;5.558;2022-10-16T04:48:59;2.97;;;1.40;;
67146;SDS011;54061;52.036;5.558;2022-10-16T04:51:25;3.83;;;1.50;;
67146;SDS011;54061;52.036;5.558;2022-10-16T04:53:52;2.80;;;1.40;;
67146;SDS011;54061;52.036;5.558;2022-10-16T04:56:18;2.00;;;1.35;;
67146;SDS011;54061;52.036;5.558;2022-10-16T04:58:43;2.00;;;1.40;;
67146;SDS011;54061;52.036;5.558;2022-10-16T05:01:09;3.97;;;1.30;;
67146;SDS011;54061;52.036;5.558;2022-10-16T05:03:34;4.07;;;1.50;;
67146;SDS011;54061;52.036;5.558;2022-10-16T05:06:00;3.25;;;1.63;;
67146;SDS011;54061;52.036;5.558;2022-10-16T05:08:25;2.97;;;1.50;;
67146;SDS011;54061;52.036;5.558;2022-10-16T05:10:51;1.63;;;1.20;;
67146;SDS011;54061;52.036;5.558;2022-10-16T05:13:16;2.47;;;1.40;;
67146;SDS011;54061;52.036;5.558;2022-10-16T05:15:42;3.80;;;1.23;;
67146;SDS011;54061;52.036;5.558;2022-10-16T05:18:12;2.92;;;1.60;;
67146;SDS011;54061;52.036;5.558;2022-10-16T05:20:37;5.38;;;1.75;;
67146;SDS011;54061;52.036;5.558;2022-10-16T05:23:03;6.38;;;2.00;;
67146;SDS011;54061;52.036;5.558;2022-10-16T05:25:28;6.25;;;1.83;;
67146;SDS011;54061;52.036;5.558;2022-10-16T05:27:54;2.88;;;1.70;;
67146;SDS011;54061;52.036;5.558;2022-10-16T05:30:19;2.72;;;1.70;;
67146;SDS011;54061;52.036;5.558;2022-10-16T05:32:46;2.13;;;1.60;;
67146;SDS011;54061;52.036;5.558;2022-10-16T05:35:16;3.78;;;1.73;;
67146;SDS011;54061;52.036;5.558;2022-10-16T05:37:42;4.43;;;1.50;;
67146;SDS011;54061;52.036;5.558;2022-10-16T05:40:08;7.57;;;2.10;;
67146;SDS011;54061;52.036;5.558;2022-10-16T05:42:34;4.05;;;1.75;;
67146;SDS011;54061;52.036;5.558;2022-10-16T05:45:00;4.50;;;1.75;;
67146;SDS011;54061;52.036;5.558;2022-10-16T05:47:25;9.52;;;1.50;;
67146;SDS011;54061;52.036;5.558;2022-10-16T05:49:51;8.52;;;1.70;;
67146;SDS011;54061;52.036;5.558;2022-10-16T05:52:18;6.20;;;2.00;;
67146;SDS011;54061;52.036;5.558;2022-10-16T05:54:43;5.07;;;1.70;;
67146;SDS011;54061;52.036;5.558;2022-10-16T05:57:09;3.17;;;1.40;;
67146;SDS011;54061;52.036;5.558;2022-10-16T05:59:34;4.75;;;1.70;;
67146;SDS011;54061;52.036;5.558;2022-10-16T06:02:00;2.85;;;1.65;;
67146;SDS011;54061;52.036;5.558;2022-10-16T06:04:25;5.38;;;1.95;;
67146;SDS011;54061;52.036;5.558;2022-10-16T06:06:51;5.40;;;2.00;;
67146;SDS011;54061;52.036;5.558;2022-10-16T06:09:16;7.63;;;2.05;;
67146;SDS011;54061;52.036;5.558;2022-10-16T06:11:42;4.85;;;1.70;;
67146;SDS011;54061;52.036;5.558;2022-10-16T06:14:08;4.00;;;1.95;;
67146;SDS011;54061;52.036;5.558;2022-10-16T06:16:35;3.60;;;1.55;;
67146;SDS011;54061;52.036;5.558;2022-10-16T06:19:01;6.10;;;1.83;;
67146;SDS011;54061;52.036;5.558;2022-10-16T06:21:31;5.10;;;1.80;;
67146;SDS011;54061;52.036;5.558;2022-10-16T06:23:57;6.82;;;2.00;;
67146;SDS011;54061;52.036;5.558;2022-10-16T06:26:24;3.38;;;2.38;;
67146;SDS011;54061;52.036;5.558;2022-10-16T06:28:51;5.85;;;1.90;;
67146;SDS011;54061;52.036;5.558;2022-10-16T06:31:17;5.60;;;1.80;;
67146;SDS011;54061;52.036;5.558;2022-10-16T06:33:43;4.07;;;1.60;;
67146;SDS011;54061;52.036;5.558;2022-10-16T06:36:14;9.52;;;1.85;;
67146;SDS011;54061;52.036;5.558;2022-10-16T06:38:41;3.35;;;1.98;;
67146;SDS011;54061;52.036;5.558;2022-10-16T06:41:08;4.35;;;1.98;;
67146;SDS011;54061;52.036;5.558;2022-10-16T06:43:36;4.65;;;1.65;;
67146;SDS011;54061;52.036;5.558;2022-10-16T06:46:02;5.20;;;1.23;;
67146;SDS011;54061;52.036;5.558;2022-10-16T06:48:29;4.70;;;1.60;;
67146;SDS011;54061;52.036;5.558;2022-10-16T06:50:58;3.05;;;1.50;;
67146;SDS011;54061;52.036;5.558;2022-10-16T06:53:26;8.05;;;1.98;;
67146;SDS011;54061;52.036;5.558;2022-10-16T06:55:53;5.70;;;1.73;;
67146;SDS011;54061;52.036;5.558;2022-10-16T06:58:19;5.28;;;1.80;;
67146;SDS011;54061;52.036;5.558;2022-10-16T07:00:45;6.65;;;1.67;;
67146;SDS011;54061;52.036;5.558;2022-10-16T07:03:11;4.15;;;1.77;;
67146;SDS011;54061;52.036;5.558;2022-10-16T07:05:37;6.57;;;2.00;;
67146;SDS011;54061;52.036;5.558;2022-10-16T07:08:06;3.72;;;1.67;;
67146;SDS011;54061;52.036;5.558;2022-10-16T07:10:33;6.90;;;1.73;;
67146;SDS011;54061;52.036;5.558;2022-10-16T07:12:59;8.00;;;2.10;;
67146;SDS011;54061;52.036;5.558;2022-10-16T07:15:25;5.80;;;1.73;;
67146;SDS011;54061;52.036;5.558;2022-10-16T07:17:51;4.82;;;1.80;;
67146;SDS011;54061;52.036;5.558;2022-10-16T07:20:16;5.95;;;1.67;;
67146;SDS011;54061;52.036;5.558;2022-10-16T07:22:42;13.25;;;2.42;;
67146;SDS011;54061;52.036;5.558;2022-10-16T07:25:08;9.57;;;4.32;;
67146;SDS011;54061;52.036;5.558;2022-10-16T07:27:34;3.42;;;1.60;;
67146;SDS011;54061;52.036;5.558;2022-10-16T07:29:59;7.03;;;3.33;;
67146;SDS011;54061;52.036;5.558;2022-10-16T07:32:25;5.20;;;1.50;;
67146;SDS011;54061;52.036;5.558;2022-10-16T07:34:51;7.50;;;1.63;;
67146;SDS011;54061;52.036;5.558;2022-10-16T07:37:17;2.85;;;1.20;;
67146;SDS011;54061;52.036;5.558;2022-10-16T07:39:43;12.05;;;1.80;;
67146;SDS011;54061;52.036;5.558;2022-10-16T07:42:08;3.47;;;1.60;;
67146;SDS011;54061;52.036;5.558;2022-10-16T07:44:34;4.50;;;1.67;;
67146;SDS011;54061;52.036;5.558;2022-10-16T07:46:59;7.07;;;1.50;;
67146;SDS011;54061;52.036;5.558;2022-10-16T07:49:25;4.20;;;1.63;;
67146;SDS011;54061;52.036;5.558;2022-10-16T07:51:50;5.28;;;1.75;;
67146;SDS011;54061;52.036;5.558;2022-10-16T07:54:16;7.80;;;1.88;;
67146;SDS011;54061;52.036;5.558;2022-10-16T07:56:41;8.80;;;1.88;;
67146;SDS011;54061;52.036;5.558;2022-10-16T07:59:07;4.35;;;1.80;;
67146;SDS011;54061;52.036;5.558;2022-10-16T08:01:32;8.38;;;1.73;;
67146;SDS011;54061;52.036;5.558;2022-10-16T08:03:58;5.10;;;1.95;;
67146;SDS011;54061;52.036;5.558;2022-10-16T08:06:23;4.38;;;1.80;;
67146;SDS011;54061;52.036;5.558;2022-10-16T08:08:49;4.88;;;1.77;;
67146;SDS011;54061;52.036;5.558;2022-10-16T08:11:15;4.25;;;1.63;;
67146;SDS011;54061;52.036;5.558;2022-10-16T08:13:41;2.65;;;1.70;;
67146;SDS011;54061;52.036;5.558;2022-10-16T08:16:07;8.02;;;1.95;;
67146;SDS011;54061;52.036;5.558;2022-10-16T08:18:34;8.75;;;2.55;;
67146;SDS011;54061;52.036;5.558;2022-10-16T08:21:01;6.38;;;1.80;;
67146;SDS011;54061;52.036;5.558;2022-10-16T08:23:27;5.32;;;2.30;;
67146;SDS011;54061;52.036;5.558;2022-10-16T08:25:53;4.68;;;1.60;;
67146;SDS011;54061;52.036;5.558;2022-10-16T08:28:20;5.15;;;1.58;;
67146;SDS011;54061;52.036;5.558;2022-10-16T08:30:45;7.53;;;2.20;;
67146;SDS011;54061;52.036;5.558;2022-10-16T08:33:11;7.68;;;1.85;;
67146;SDS011;54061;52.036;5.558;2022-10-16T08:35:36;5.50;;;1.75;;
67146;SDS011;54061;52.036;5.558;2022-10-16T08:38:03;6.00;;;1.52;;
67146;SDS011;54061;52.036;5.558;2022-10-16T08:40:29;3.45;;;1.52;;
67146;SDS011;54061;52.036;5.558;2022-10-16T08:43:19;6.25;;;1.77;;
67146;SDS011;54061;52.036;5.558;2022-10-16T08:46:09;8.98;;;1.88;;
67146;SDS011;54061;52.036;5.558;2022-10-16T08:49:05;5.70;;;1.83;;
67146;SDS011;54061;52.036;5.558;2022-10-16T08:51:38;7.13;;;1.55;;
67146;SDS011;54061;52.036;5.558;2022-10-16T08:54:05;6.30;;;1.70;;
67146;SDS011;54061;52.036;5.558;2022-10-16T08:56:54;8.15;;;1.67;;
67146;SDS011;54061;52.036;5.558;2022-10-16T08:59:31;5.15;;;1.90;;
67146;SDS011;54061;52.036;5.558;2022-10-16T09:01:57;4.18;;;1.25;;
67146;SDS011;54061;52.036;5.558;2022-10-16T09:12:55;6.85;;;1.67;;
67146;SDS011;54061;52.036;5.558;2022-10-16T09:15:40;6.18;;;1.60;;
67146;SDS011;54061;52.036;5.558;2022-10-16T09:21:14;5.25;;;1.63;;
67146;SDS011;54061;52.036;5.558;2022-10-16T09:23:41;4.28;;;1.50;;
67146;SDS011;54061;52.036;5.558;2022-10-16T09:26:09;11.82;;;1.63;;
67146;SDS011;54061;52.036;5.558;2022-10-16T09:28:38;6.13;;;1.90;;
67146;SDS011;54061;52.036;5.558;2022-10-16T09:31:04;9.13;;;1.70;;
67146;SDS011;54061;52.036;5.558;2022-10-16T09:33:30;7.10;;;1.77;;
67146;SDS011;54061;52.036;5.558;2022-10-16T09:36:02;6.97;;;1.65;;
67146;SDS011;54061;52.036;5.558;2022-10-16T09:38:35;5.75;;;1.60;;
67146;SDS011;54061;52.036;5.558;2022-10-16T09:41:02;10.25;;;1.75;;
67146;SDS011;54061;52.036;5.558;2022-10-16T09:44:00;12.80;;;2.03;;
67146;SDS011;54061;52.036;5.558;2022-10-16T09:46:32;7.25;;;1.70;;
67146;SDS011;54061;52.036;5.558;2022-10-16T09:48:59;10.38;;;2.42;;
67146;SDS011;54061;52.036;5.558;2022-10-16T09:53:55;11.20;;;3.03;;
67146;SDS011;54061;52.036;5.558;2022-10-16T09:56:41;13.65;;;2.85;;
67146;SDS011;54061;52.036;5.558;2022-10-16T09:59:13;9.15;;;1.80;;
67146;SDS011;54061;52.036;5.558;2022-10-16T10:01:41;10.38;;;1.98;;
67146;SDS011;54061;52.036;5.558;2022-10-16T10:04:10;11.00;;;2.20;;
67146;SDS011;54061;52.036;5.558;2022-10-16T10:06:37;10.48;;;2.25;;
67146;SDS011;54061;52.036;5.558;2022-10-16T10:09:21;15.15;;;2.35;;
67146;SDS011;54061;52.036;5.558;2022-10-16T10:16:49;11.13;;;2.50;;
67146;SDS011;54061;52.036;5.558;2022-10-16T10:19:17;12.95;;;2.25;;
67146;SDS011;54061;52.036;5.558;2022-10-16T10:21:47;14.43;;;2.50;;
67146;SDS011;54061;52.036;5.558;2022-10-16T10:24:16;11.70;;;2.40;;
67146;SDS011;54061;52.036;5.558;2022-10-16T10:26:51;14.50;;;2.45;;
67146;SDS011;54061;52.036;5.558;2022-10-16T10:32:28;11.68;;;3.00;;
67146;SDS011;54061;52.036;5.558;2022-10-16T10:35:06;14.90;;;2.17;;
67146;SDS011;54061;52.036;5.558;2022-10-16T10:37:53;10.30;;;2.28;;
67146;SDS011;54061;52.036;5.558;2022-10-16T10:40:30;9.40;;;2.05;;
67146;SDS011;54061;52.036;5.558;2022-10-16T10:43:14;15.23;;;2.20;;
67146;SDS011;54061;52.036;5.558;2022-10-16T10:45:52;10.07;;;2.00;;
67146;SDS011;54061;52.036;5.558;2022-10-16T10:51:16;12.70;;;2.08;;
67146;SDS011;54061;52.036;5.558;2022-10-16T10:54:04;10.77;;;2.03;;
67146;SDS011;54061;52.036;5.558;2022-10-16T10:56:47;17.88;;;1.63;;
67146;SDS011;54061;52.036;5.558;2022-10-16T11:02:00;10.18;;;1.77;;
67146;SDS011;54061;52.036;5.558;2022-10-16T11:07:15;10.15;;;1.80;;
67146;SDS011;54061;52.036;5.558;2022-10-16T11:09:49;17.75;;;2.35;;
67146;SDS011;54061;52.036;5.558;2022-10-16T11:12:19;10.18;;;2.20;;
67146;SDS011;54061;52.036;5.558;2022-10-16T11:17:55;17.10;;;4.65;;
67146;SDS011;54061;52.036;5.558;2022-10-16T11:20:34;17.95;;;5.63;;
67146;SDS011;54061;52.036;5.558;2022-10-16T11:23:08;13.07;;;3.00;;
67146;SDS011;54061;52.036;5.558;2022-10-16T11:25:56;13.30;;;2.67;;
67146;SDS011;54061;52.036;5.558;2022-10-16T11:28:27;7.85;;;1.90;;
67146;SDS011;54061;52.036;5.558;2022-10-16T11:33:44;26.33;;;8.25;;
67146;SDS011;54061;52.036;5.558;2022-10-16T11:41:50;10.07;;;1.90;;
67146;SDS011;54061;52.036;5.558;2022-10-16T11:50:02;10.63;;;2.03;;
67146;SDS011;54061;52.036;5.558;2022-10-16T11:52:42;12.30;;;1.65;;
67146;SDS011;54061;52.036;5.558;2022-10-16T11:55:27;11.93;;;2.13;;
67146;SDS011;54061;52.036;5.558;2022-10-16T11:57:59;13.55;;;1.63;;
67146;SDS011;54061;52.036;5.558;2022-10-16T12:03:29;15.30;;;1.95;;
67146;SDS011;54061;52.036;5.558;2022-10-16T12:08:48;7.72;;;1.65;;
67146;SDS011;54061;52.036;5.558;2022-10-16T12:14:07;7.50;;;1.55;;
67146;SDS011;54061;52.036;5.558;2022-10-16T12:16:55;12.90;;;1.73;;
67146;SDS011;54061;52.036;5.558;2022-10-16T12:20:01;8.10;;;1.73;;
67146;SDS011;54061;52.036;5.558;2022-10-16T12:22:36;10.13;;;1.75;;
67146;SDS011;54061;52.036;5.558;2022-10-16T12:25:05;16.83;;;2.10;;
67146;SDS011;54061;52.036;5.558;2022-10-16T12:27:44;12.00;;;2.35;;
67146;SDS011;54061;52.036;5.558;2022-10-16T12:30:15;12.48;;;2.08;;
67146;SDS011;54061;52.036;5.558;2022-10-16T12:32:54;9.65;;;1.77;;
67146;SDS011;54061;52.036;5.558;2022-10-16T12:35:24;10.85;;;1.90;;
67146;SDS011;54061;52.036;5.558;2022-10-16T12:37:52;15.80;;;3.03;;
67146;SDS011;54061;52.036;5.558;2022-10-16T12:40:31;11.90;;;2.55;;
67146;SDS011;54061;52.036;5.558;2022-10-16T12:42:59;11.18;;;2.83;;
67146;SDS011;54061;52.036;5.558;2022-10-16T12:45:36;15.60;;;2.58;;
67146;SDS011;54061;52.036;5.558;2022-10-16T12:48:02;13.75;;;2.30;;
67146;SDS011;54061;52.036;5.558;2022-10-16T12:50:43;10.80;;;2.35;;
67146;SDS011;54061;52.036;5.558;2022-10-16T12:53:19;9.73;;;1.40;;
67146;SDS011;54061;52.036;5.558;2022-10-16T12:55:57;11.90;;;1.67;;
67146;SDS011;54061;52.036;5.558;2022-10-16T13:12:38;7.85;;;1.50;;
67146;SDS011;54061;52.036;5.558;2022-10-16T13:18:16;8.18;;;1.98;;
67146;SDS011;54061;52.036;5.558;2022-10-16T13:27:02;11.85;;;1.92;;
67146;SDS011;54061;52.036;5.558;2022-10-16T13:29:34;8.80;;;1.50;;
67146;SDS011;54061;52.036;5.558;2022-10-16T13:32:00;13.45;;;2.05;;
67146;SDS011;54061;52.036;5.558;2022-10-16T13:34:32;8.73;;;1.83;;
67146;SDS011;54061;52.036;5.558;2022-10-16T13:36:58;11.10;;;2.28;;
67146;SDS011;54061;52.036;5.558;2022-10-16T13:39:24;8.35;;;1.45;;
67146;SDS011;54061;52.036;5.558;2022-10-16T13:44:53;7.78;;;1.95;;
67146;SDS011;54061;52.036;5.558;2022-10-16T13:47:21;11.52;;;2.38;;
67146;SDS011;54061;52.036;5.558;2022-10-16T13:52:40;9.82;;;1.48;;
67146;SDS011;54061;52.036;5.558;2022-10-16T13:55:13;8.18;;;1.60;;
67146;SDS011;54061;52.036;5.558;2022-10-16T13:57:41;10.63;;;1.80;;
67146;SDS011;54061;52.036;5.558;2022-10-16T14:00:18;10.48;;;1.83;;
67146;SDS011;54061;52.036;5.558;2022-10-16T14:02:43;14.70;;;2.08;;
67146;SDS011;54061;52.036;5.558;2022-10-16T14:05:09;9.25;;;1.58;;
67146;SDS011;54061;52.036;5.558;2022-10-16T14:07:35;13.82;;;2.40;;
67146;SDS011;54061;52.036;5.558;2022-10-16T14:10:06;12.98;;;2.28;;
67146;SDS011;54061;52.036;5.558;2022-10-16T14:12:43;13.73;;;1.92;;
67146;SDS011;54061;52.036;5.558;2022-10-16T14:15:15;18.05;;;2.30;;
67146;SDS011;54061;52.036;5.558;2022-10-16T14:17:43;5.05;;;1.48;;
67146;SDS011;54061;52.036;5.558;2022-10-16T14:20:14;8.00;;;1.35;;
67146;SDS011;54061;52.036;5.558;2022-10-16T14:22:41;9.07;;;1.95;;
67146;SDS011;54061;52.036;5.558;2022-10-16T14:25:20;14.45;;;2.72;;
67146;SDS011;54061;52.036;5.558;2022-10-16T14:30:48;10.45;;;2.58;;
67146;SDS011;54061;52.036;5.558;2022-10-16T14:33:31;11.13;;;1.85;;
67146;SDS011;54061;52.036;5.558;2022-10-16T14:36:11;14.48;;;1.75;;
67146;SDS011;54061;52.036;5.558;2022-10-16T14:38:40;12.20;;;1.85;;
67146;SDS011;54061;52.036;5.558;2022-10-16T14:41:07;10.65;;;2.00;;
67146;SDS011;54061;52.036;5.558;2022-10-16T14:43:38;10.43;;;2.20;;
67146;SDS011;54061;52.036;5.558;2022-10-16T14:46:12;8.00;;;1.87;;
67146;SDS011;54061;52.036;5.558;2022-10-16T14:48:44;10.77;;;2.03;;
67146;SDS011;54061;52.036;5.558;2022-10-16T14:51:16;15.55;;;2.22;;
67146;SDS011;54061;52.036;5.558;2022-10-16T14:53:43;12.35;;;1.77;;
67146;SDS011;54061;52.036;5.558;2022-10-16T14:56:19;11.38;;;2.00;;
67146;SDS011;54061;52.036;5.558;2022-10-16T14:58:48;9.15;;;1.73;;
67146;SDS011;54061;52.036;5.558;2022-10-16T15:01:15;16.38;;;2.15;;
67146;SDS011;54061;52.036;5.558;2022-10-16T15:03:41;10.85;;;2.00;;
67146;SDS011;54061;52.036;5.558;2022-10-16T15:06:09;10.10;;;1.88;;
67146;SDS011;54061;52.036;5.558;2022-10-16T15:08:37;11.05;;;2.05;;
67146;SDS011;54061;52.036;5.558;2022-10-16T15:11:02;10.50;;;1.80;;
67146;SDS011;54061;52.036;5.558;2022-10-16T15:13:28;9.38;;;1.75;;
67146;SDS011;54061;52.036;5.558;2022-10-16T15:15:54;16.45;;;2.05;;
67146;SDS011;54061;52.036;5.558;2022-10-16T15:18:20;19.00;;;2.38;;
67146;SDS011;54061;52.036;5.558;2022-10-16T15:20:50;12.65;;;2.00;;
67146;SDS011;54061;52.036;5.558;2022-10-16T15:23:17;7.30;;;1.83;;
67146;SDS011;54061;52.036;5.558;2022-10-16T15:25:49;18.77;;;2.60;;
67146;SDS011;54061;52.036;5.558;2022-10-16T15:28:16;14.27;;;3.40;;
67146;SDS011;54061;52.036;5.558;2022-10-16T15:30:43;11.30;;;2.90;;
67146;SDS011;54061;52.036;5.558;2022-10-16T15:33:28;16.65;;;3.38;;
67146;SDS011;54061;52.036;5.558;2022-10-16T15:35:57;11.13;;;2.40;;
67146;SDS011;54061;52.036;5.558;2022-10-16T15:38:23;16.98;;;2.10;;
67146;SDS011;54061;52.036;5.558;2022-10-16T15:40:49;7.15;;;2.00;;
67146;SDS011;54061;52.036;5.558;2022-10-16T15:43:15;15.52;;;2.67;;
67146;SDS011;54061;52.036;5.558;2022-10-16T15:45:41;10.40;;;2.35;;
67146;SDS011;54061;52.036;5.558;2022-10-16T15:48:09;12.68;;;3.20;;
67146;SDS011;54061;52.036;5.558;2022-10-16T15:50:36;11.75;;;2.53;;
67146;SDS011;54061;52.036;5.558;2022-10-16T15:53:03;16.33;;;2.78;;
67146;SDS011;54061;52.036;5.558;2022-10-16T15:55:28;17.02;;;4.32;;
67146;SDS011;54061;52.036;5.558;2022-10-16T15:57:54;19.77;;;5.00;;
67146;SDS011;54061;52.036;5.558;2022-10-16T16:00:21;16.33;;;3.70;;
67146;SDS011;54061;52.036;5.558;2022-10-16T16:02:49;13.48;;;3.42;;
67146;SDS011;54061;52.036;5.558;2022-10-16T16:05:16;17.00;;;3.38;;
67146;SDS011;54061;52.036;5.558;2022-10-16T16:07:43;13.25;;;2.92;;
67146;SDS011;54061;52.036;5.558;2022-10-16T16:10:10;15.68;;;2.40;;
67146;SDS011;54061;52.036;5.558;2022-10-16T16:12:36;12.32;;;2.42;;
67146;SDS011;54061;52.036;5.558;2022-10-16T16:15:03;18.08;;;2.58;;
67146;SDS011;54061;52.036;5.558;2022-10-16T16:17:31;10.98;;;2.60;;
67146;SDS011;54061;52.036;5.558;2022-10-16T16:19:57;9.85;;;2.83;;
67146;SDS011;54061;52.036;5.558;2022-10-16T16:22:23;8.23;;;2.28;;
67146;SDS011;54061;52.036;5.558;2022-10-16T16:24:48;11.32;;;2.22;;
67146;SDS011;54061;52.036;5.558;2022-10-16T16:27:14;23.48;;;3.38;;
67146;SDS011;54061;52.036;5.558;2022-10-16T16:29:40;15.60;;;2.85;;
67146;SDS011;54061;52.036;5.558;2022-10-16T16:32:05;15.95;;;2.92;;
67146;SDS011;54061;52.036;5.558;2022-10-16T16:34:31;13.25;;;3.00;;